Time;durP1;ratioP1;P1;durP2;ratioP2;P2;SDS_P1;SDS_P2;PMS_P1;PMS_P2;Temp;Humidity;BMP_temperature;BMP_pressure;BME280_temperature;BME280_humidity;BME280_pressure;Samples;Min_cycle;Max_cycle;Signal;HPM_P1;HPM_P2
2022/08/17 06:00:21;;;;;;;13.30;10.30;;;;;;;;;;10605304;27;20425;-81
2022/08/17 06:05:43;;;;;;;11.88;9.93;;;;;;;;;;10601695;28;20035;-79
2022/08/17 06:10:53;;;;;;;8.50;7.68;;;;;;;;;;10597668;28;20028;-81
2022/08/17 06:16:14;;;;;;;10.77;9.68;;;;;;;;;;10603031;28;20050;-79
2022/08/17 06:21:17;;;;;;;12.23;10.85;;;;;;;;;;10605337;28;20095;-80
2022/08/17 06:26:20;;;;;;;10.55;8.98;;;;;;;;;;10602449;28;20024;-80
2022/08/17 06:31:26;;;;;;;7.15;6.50;;;;;;;;;;10603731;28;20101;-82
2022/08/17 06:36:36;;;;;;;11.50;7.20;;;;;;;;;;10596001;28;20016;-82
2022/08/17 06:41:37;;;;;;;13.63;10.00;;;;;;;;;;10596599;28;20024;-82
2022/08/17 06:46:40;;;;;;;13.35;8.27;;;;;;;;;;10599506;28;20032;-82
2022/08/17 06:52:14;;;;;;;7.32;6.55;;;;;;;;;;10597706;28;20024;-82
2022/08/17 06:57:15;;;;;;;8.40;7.28;;;;;;;;;;10577001;28;20044;-81
2022/08/17 07:02:23;;;;;;;8.73;6.57;;;;;;;;;;10603273;28;20024;-81
2022/08/17 07:12:44;;;;;;;7.35;6.65;;;;;;;;;;10562844;28;20111;-79
2022/08/17 07:17:48;;;;;;;7.38;6.40;;;;;;;;;;10564474;28;20027;-81
2022/08/17 07:22:55;;;;;;;7.03;6.10;;;;;;;;;;10573923;28;20020;-83
2022/08/17 07:27:58;;;;;;;9.25;7.18;;;;;;;;;;10573887;28;20486;-84
2022/08/17 07:33:01;;;;;;;8.02;6.45;;;;;;;;;;10578199;28;20020;-84
2022/08/17 07:38:05;;;;;;;8.25;6.35;;;;;;;;;;10576901;28;20020;-83
2022/08/17 07:43:09;;;;;;;12.35;7.60;;;;;;;;;;10573943;28;20464;-82
2022/08/17 07:48:18;;;;;;;7.50;6.78;;;;;;;;;;10569968;28;20043;-83
2022/08/17 07:53:22;;;;;;;8.35;6.40;;;;;;;;;;10573441;28;20020;-84
2022/08/17 07:58:23;;;;;;;11.35;6.68;;;;;;;;;;10572722;28;20059;-83
2022/08/17 08:03:26;;;;;;;10.07;6.90;;;;;;;;;;10568995;28;20085;-83
2022/08/17 08:08:29;;;;;;;10.10;7.13;;;;;;;;;;10570751;28;20074;-84
2022/08/17 08:13:31;;;;;;;8.27;7.38;;;;;;;;;;10573924;28;20024;-85
2022/08/17 08:18:32;;;;;;;9.05;6.60;;;;;;;;;;10567755;28;20128;-84
2022/08/17 08:23:33;;;;;;;9.88;7.50;;;;;;;;;;10568124;28;20024;-85
2022/08/17 08:28:42;;;;;;;8.05;6.45;;;;;;;;;;10564904;28;20058;-83
2022/08/17 08:33:55;;;;;;;6.80;6.03;;;;;;;;;;10570919;28;20043;-84
2022/08/17 08:38:56;;;;;;;9.85;6.00;;;;;;;;;;10574145;28;20064;-84
2022/08/17 08:44:16;;;;;;;8.40;5.80;;;;;;;;;;10566642;28;20066;-85
2022/08/17 08:49:32;;;;;;;8.23;5.70;;;;;;;;;;10564894;28;20031;-84
2022/08/17 08:54:45;;;;;;;11.20;9.25;;;;;;;;;;10557857;28;20051;-84
2022/08/17 09:00:06;;;;;;;10.90;7.18;;;;;;;;;;10559127;28;20040;-84
2022/08/17 09:05:18;;;;;;;7.05;6.20;;;;;;;;;;10559352;28;20027;-83
2022/08/17 09:10:45;;;;;;;7.82;6.30;;;;;;;;;;10559944;28;20039;-85
2022/08/17 09:15:49;;;;;;;8.75;5.88;;;;;;;;;;10556312;28;20080;-81
2022/08/17 09:20:55;;;;;;;7.50;6.25;;;;;;;;;;10555142;28;20416;-84
2022/08/17 09:26:08;;;;;;;9.63;6.20;;;;;;;;;;10559029;28;20032;-82
2022/08/17 09:31:11;;;;;;;8.85;6.72;;;;;;;;;;10562065;28;20114;-82
2022/08/17 09:36:20;;;;;;;8.25;6.18;;;;;;;;;;10563763;28;20026;-83
2022/08/17 09:41:24;;;;;;;10.23;6.55;;;;;;;;;;10563152;28;20035;-83
2022/08/17 09:46:32;;;;;;;7.20;6.28;;;;;;;;;;10557027;28;20032;-84
2022/08/17 09:51:35;;;;;;;7.63;6.90;;;;;;;;;;10554898;28;20084;-84
2022/08/17 09:56:48;;;;;;;9.57;7.53;;;;;;;;;;10555166;28;20031;-83
2022/08/17 10:01:56;;;;;;;8.48;6.47;;;;;;;;;;10554208;28;20419;-83
2022/08/17 10:07:12;;;;;;;6.70;6.03;;;;;;;;;;10557896;28;20493;-82
2022/08/17 10:12:27;;;;;;;7.80;6.30;;;;;;;;;;10554566;28;20073;-83
2022/08/17 10:17:28;;;;;;;6.63;6.00;;;;;;;;;;10555457;28;20036;-84
2022/08/17 10:27:59;;;;;;;10.27;7.22;;;;;;;;;;10558724;28;20036;-83
2022/08/17 10:33:02;;;;;;;8.73;6.45;;;;;;;;;;10555789;28;20016;-83
2022/08/17 10:38:11;;;;;;;8.27;6.82;;;;;;;;;;10556196;28;20020;-84
2022/08/17 10:43:34;;;;;;;12.15;8.07;;;;;;;;;;10567958;28;20027;-81
2022/08/17 10:48:38;;;;;;;7.85;7.00;;;;;;;;;;10597134;28;20081;-81
2022/08/17 10:54:03;;;;;;;9.23;7.93;;;;;;;;;;10582195;28;20040;-83
2022/08/17 11:05:21;;;;;;;8.20;7.43;;;;;;;;;;10587220;28;20024;-83
2022/08/17 11:10:22;;;;;;;9.52;8.32;;;;;;;;;;10586230;28;20032;-84
2022/08/17 11:15:42;;;;;;;10.77;8.05;;;;;;;;;;10572305;28;20071;-85
2022/08/17 11:21:02;;;;;;;11.52;9.30;;;;;;;;;;10567536;28;20027;-85
2022/08/17 11:26:17;;;;;;;10.48;9.45;;;;;;;;;;10569655;28;20036;-86
2022/08/17 11:31:30;;;;;;;10.82;9.57;;;;;;;;;;10568828;28;20026;-85
2022/08/17 11:36:31;;;;;;;14.60;12.57;;;;;;;;;;10569363;28;20062;-85
2022/08/17 11:41:49;;;;;;;11.48;10.23;;;;;;;;;;10573303;28;20505;-86
2022/08/17 11:52:09;;;;;;;;;;;;;;;;;;10565945;28;20136;-86
2022/08/17 11:57:30;;;;;;;13.38;11.18;;;;;;;;;;10563700;28;20051;-86
2022/08/17 12:02:34;;;;;;;13.70;11.57;;;;;;;;;;10567645;28;20031;-85
2022/08/17 12:07:41;;;;;;;14.73;13.23;;;;;;;;;;10570828;28;20020;-85
2022/08/17 12:12:42;;;;;;;16.45;13.57;;;;;;;;;;10566922;28;20020;-86
2022/08/17 12:18:00;;;;;;;15.25;13.65;;;;;;;;;;10566045;28;20052;-85
2022/08/17 12:23:14;;;;;;;12.70;11.48;;;;;;;;;;10562434;28;20020;-85
2022/08/17 12:28:23;;;;;;;14.68;13.25;;;;;;;;;;10562249;28;20036;-86
2022/08/17 12:33:27;;;;;;;21.38;19.30;;;;;;;;;;10563716;28;20474;-85
2022/08/17 12:38:30;;;;;;;20.70;17.42;;;;;;;;;;10565261;28;20043;-86
2022/08/17 12:43:57;;;;;;;20.25;18.25;;;;;;;;;;10568926;28;20113;-85
2022/08/17 12:49:18;;;;;;;18.17;16.55;;;;;;;;;;10572725;28;20130;-86
2022/08/17 12:54:40;;;;;;;19.55;17.73;;;;;;;;;;10557267;28;20119;-86
2022/08/17 13:11:01;;;;;;;25.42;22.73;;;;;;;;;;10576881;28;20107;-84
2022/08/17 13:16:08;;;;;;;20.65;17.73;;;;;;;;;;10557433;28;20149;-86
2022/08/17 13:21:29;;;;;;;17.75;16.00;;;;;;;;;;10560628;28;20088;-86
2022/08/17 13:26:32;;;;;;;25.40;22.70;;;;;;;;;;10557297;28;20023;-86
2022/08/17 13:32:23;;;;;;;26.75;24.20;;;;;;;;;;10550441;28;20398;-86
2022/08/17 13:38:00;;;;;;;29.23;26.35;;;;;;;;;;10554981;28;20111;-85
2022/08/17 13:43:02;;;;;;;28.67;25.92;;;;;;;;;;10551629;28;20091;-85
2022/08/17 14:05:01;;;;;;;30.42;27.58;;;;;;;;;;10441031;28;20076;-82
2022/08/17 14:16:08;;;;;;;26.73;23.83;;;;;;;;;;10451587;28;20037;-84
2022/08/17 14:32:31;;;;;;;25.23;22.90;;;;;;;;;;10444673;28;20100;-84
2022/08/17 14:37:57;;;;;;;28.58;25.92;;;;;;;;;;10432388;28;20057;-84
2022/08/17 14:43:11;;;;;;;29.00;26.17;;;;;;;;;;10431783;28;20032;-84
2022/08/17 14:54:25;;;;;;;28.75;25.88;;;;;;;;;;10453278;28;20023;-83
2022/08/17 14:59:51;;;;;;;29.25;26.63;;;;;;;;;;10636351;22;20057;-82
2022/08/17 15:04:55;;;;;;;32.78;29.65;;;;;;;;;;10425545;28;20037;-82
2022/08/17 15:10:26;;;;;;;33.80;30.63;;;;;;;;;;10409841;28;20038;-83
2022/08/17 15:21:32;;;;;;;30.30;27.45;;;;;;;;;;10484524;28;20036;-82
2022/08/17 15:26:34;;;;;;;26.17;23.85;;;;;;;;;;10495010;28;20088;-83
2022/08/17 15:32:03;;;;;;;23.30;21.10;;;;;;;;;;10491280;28;20076;-83
2022/08/17 15:37:08;;;;;;;30.73;27.83;;;;;;;;;;10490345;28;20029;-82
2022/08/17 15:42:15;;;;;;;24.35;22.20;;;;;;;;;;10487403;28;20032;-83
2022/08/17 15:47:45;;;;;;;20.77;18.75;;;;;;;;;;10466645;28;20037;-82
2022/08/17 15:53:09;;;;;;;37.10;33.70;;;;;;;;;;10478632;28;20047;-82
2022/08/17 15:58:10;;;;;;;23.38;20.90;;;;;;;;;;10464091;28;20155;-82
2022/08/17 16:03:17;;;;;;;19.58;17.85;;;;;;;;;;10465639;28;20083;-83
2022/08/17 16:08:18;;;;;;;23.20;21.05;;;;;;;;;;10455545;28;20080;-82
2022/08/17 16:13:19;;;;;;;23.33;20.75;;;;;;;;;;10455348;28;20487;-82
2022/08/17 16:18:30;;;;;;;28.42;25.85;;;;;;;;;;10460231;28;20063;-82
2022/08/17 16:23:31;;;;;;;26.27;23.75;;;;;;;;;;10471881;28;20037;-82
2022/08/17 16:28:32;;;;;;;18.35;16.65;;;;;;;;;;10476276;28;20040;-84
2022/08/17 16:33:34;;;;;;;33.50;30.17;;;;;;;;;;10470540;28;20037;-85
2022/08/17 16:38:37;;;;;;;27.92;25.30;;;;;;;;;;10465035;28;20033;-84
2022/08/17 16:43:38;;;;;;;26.65;24.15;;;;;;;;;;10452872;28;20036;-84
2022/08/17 16:48:39;;;;;;;31.13;28.15;;;;;;;;;;10452099;28;20045;-84
2022/08/17 16:53:42;;;;;;;28.10;25.40;;;;;;;;;;10451011;28;20064;-85
2022/08/17 16:58:58;;;;;;;32.17;29.08;;;;;;;;;;10460653;28;20041;-85
2022/08/17 17:04:03;;;;;;;22.40;20.33;;;;;;;;;;10475198;28;20094;-82
2022/08/17 17:09:10;;;;;;;25.05;22.58;;;;;;;;;;10474149;28;20067;-80
2022/08/17 17:14:17;;;;;;;29.65;27.05;;;;;;;;;;10472912;28;20064;-80
2022/08/17 17:19:30;;;;;;;23.35;21.17;;;;;;;;;;10473124;28;20044;-80
2022/08/17 17:24:44;;;;;;;25.83;23.42;;;;;;;;;;10470200;28;20029;-81
2022/08/17 17:30:04;;;;;;;27.40;24.90;;;;;;;;;;10469195;28;20041;-80
2022/08/17 17:35:23;;;;;;;29.02;26.45;;;;;;;;;;10468526;28;20072;-81
2022/08/17 17:40:31;;;;;;;28.63;26.08;;;;;;;;;;10470305;28;20040;-81
2022/08/17 17:45:37;;;;;;;27.75;25.30;;;;;;;;;;10469726;28;20036;-80
2022/08/17 17:50:45;;;;;;;22.65;20.52;;;;;;;;;;10472535;28;20044;-82
2022/08/17 17:56:05;;;;;;;21.42;19.42;;;;;;;;;;10450354;28;20055;-80
2022/08/17 18:01:11;;;;;;;20.10;18.40;;;;;;;;;;10466658;28;20041;-80
2022/08/17 18:06:20;;;;;;;29.40;26.55;;;;;;;;;;10469253;28;20048;-81
2022/08/17 18:11:29;;;;;;;19.07;17.30;;;;;;;;;;10489196;28;20036;-79
2022/08/17 18:16:31;;;;;;;19.83;17.92;;;;;;;;;;10466468;28;20048;-80
2022/08/17 18:21:37;;;;;;;17.88;16.38;;;;;;;;;;10480012;28;20037;-79
2022/08/17 18:26:40;;;;;;;16.90;15.40;;;;;;;;;;10468861;28;20401;-80
2022/08/17 18:31:42;;;;;;;17.05;15.63;;;;;;;;;;10471713;28;20586;-81
2022/08/17 18:36:43;;;;;;;18.50;16.83;;;;;;;;;;10475504;28;20043;-80
2022/08/17 18:41:49;;;;;;;18.27;16.67;;;;;;;;;;10471253;28;20387;-80
2022/08/17 18:47:09;;;;;;;15.20;13.90;;;;;;;;;;10469235;28;20041;-83
2022/08/17 18:52:10;;;;;;;18.10;16.33;;;;;;;;;;10471342;28;20095;-80
2022/08/17 18:57:11;;;;;;;15.88;14.57;;;;;;;;;;10471463;28;20037;-81
2022/08/17 19:02:16;;;;;;;15.25;14.00;;;;;;;;;;10469165;28;20100;-81
2022/08/17 19:07:23;;;;;;;17.33;15.57;;;;;;;;;;10474486;28;20033;-81
2022/08/17 19:12:45;;;;;;;15.15;13.75;;;;;;;;;;10494268;28;20032;-82
2022/08/17 19:17:52;;;;;;;16.00;14.65;;;;;;;;;;10475943;28;20511;-81
2022/08/17 19:22:57;;;;;;;15.73;14.32;;;;;;;;;;10479634;28;20044;-82
